UAOO

Kzyl-Orda Southwest Airport

Kzyl-Orda, Kazakhstan
TAF UAOO 182000Z 1821/1906 03004MPS 9999 OVC010 TEMPO 1823/1905 VRB01MPS 2000 BR OVC002
Issued Valid From Valid To
Dec-18 @ 20:00 UTC
(3 hours ago)
Dec-18 @ 21:00 UTC
(2 hours ago)
Dec-19 @ 06:00 UTC
(in 7 hours)
Dec-18 @ 21:00 to Dec-19 @ 06:00
TAF UAOO 182000Z 1821/1906 03004MPS 9999 OVC010
Wind Visibility Clouds
30° at 8 knots 10,000+ meters
  • Overcast at 1,000' AGL
Temporary Dec-18 @ 23:00 to Dec-19 @ 05:00
TEMPO 1823/1905 VRB01MPS 2000 BR OVC002
Wind Visibility Clouds Conditions
Variable at 2 knots 1,996 meters
  • Overcast at 200' AGL
  • Mist
TAF UAOO 182000Z 1821/1906 03004MPS 9999 OVC010 TEMPO 1823/1905 VRB01MPS 2000 BR OVC002
Issued Dec-18 @ 20:00 UTC
(3 hours ago)
Valid From Dec-18 @ 21:00 UTC
(2 hours ago)
Valid To Dec-19 @ 06:00 UTC
(in 7 hours)
Dec-18 @ 21:00 - Dec-19 @ 06:00
Wind Visibility
30° at 8 knots 10,000+ meters
Clouds
  • Overcast at 1,000' AGL
Temporary Dec-18 @ 23:00 - Dec-19 @ 05:00
Wind Visibility
Variable at 2 knots 1,996 meters
Clouds
  • Overcast at 200' AGL
Conditions
  • Mist